createdAt,value
2023-02-03T00:01:28.075Z,78.90
2023-02-03T00:03:55.331Z,78.90
2023-02-03T00:06:22.835Z,78.90
2023-02-03T00:08:55.286Z,78.90
2023-02-03T00:11:23.356Z,78.80
2023-02-03T00:13:50.680Z,79.00
2023-02-03T00:16:18.005Z,79.80
2023-02-03T00:18:45.337Z,79.20
2023-02-03T00:21:14.989Z,79.20
2023-02-03T00:23:43.091Z,79.20
2023-02-03T00:26:12.630Z,79.20
2023-02-03T00:28:42.021Z,79.20
2023-02-03T00:31:19.901Z,79.30
2023-02-03T00:33:48.053Z,79.50
2023-02-03T00:36:15.279Z,79.50
2023-02-03T00:38:42.745Z,79.40
2023-02-03T00:41:10.333Z,79.50
2023-02-03T00:43:37.553Z,79.50
2023-02-03T00:46:05.339Z,79.50
2023-02-03T00:48:32.611Z,79.70
2023-02-03T00:50:59.951Z,79.90
2023-02-03T00:53:27.414Z,80.00
2023-02-03T00:55:54.753Z,80.10
2023-02-03T00:58:22.898Z,80.40
2023-02-03T01:00:50.221Z,80.30
2023-02-03T01:03:19.012Z,80.10
2023-02-03T01:05:46.217Z,80.00
2023-02-03T01:08:13.643Z,80.00
2023-02-03T01:10:40.946Z,80.10
2023-02-03T01:13:08.128Z,80.30
2023-02-03T01:15:35.478Z,80.50
2023-02-03T01:18:02.815Z,80.60
2023-02-03T01:20:30.105Z,80.80
2023-02-03T01:22:58.994Z,81.10
2023-02-03T01:25:26.345Z,81.40
2023-02-03T01:27:53.658Z,81.60
2023-02-03T01:30:21.272Z,81.60
2023-02-03T01:32:49.901Z,81.60
2023-02-03T01:35:17.467Z,81.70
2023-02-03T01:37:45.016Z,81.80
2023-02-03T01:40:13.123Z,82.10
2023-02-03T01:42:40.452Z,82.40
2023-02-03T01:45:11.430Z,82.60
2023-02-03T01:47:43.489Z,82.80
2023-02-03T01:50:20.949Z,83.00
2023-02-03T01:52:53.525Z,83.10
2023-02-03T01:55:24.694Z,83.20
2023-02-03T01:57:56.128Z,83.40
2023-02-03T02:00:27.209Z,83.60
2023-02-03T02:02:59.970Z,83.60
2023-02-03T02:05:30.586Z,83.60
2023-02-03T02:08:00.652Z,83.60
2023-02-03T02:10:30.305Z,83.50
2023-02-03T02:12:59.205Z,83.30
2023-02-03T02:15:43.498Z,83.30
2023-02-03T02:18:15.821Z,83.40
2023-02-03T02:21:23.498Z,83.20
2023-02-03T02:24:00.691Z,83.30
2023-02-03T02:26:56.874Z,83.30
2023-02-03T02:29:55.678Z,83.20
2023-02-03T02:32:45.060Z,83.20
2023-02-03T02:35:24.525Z,83.30
2023-02-03T02:38:05.340Z,83.20
2023-02-03T02:40:55.990Z,83.10
2023-02-03T02:43:29.825Z,83.20
2023-02-03T02:46:13.045Z,83.10
2023-02-03T02:48:50.186Z,83.10
2023-02-03T02:51:18.068Z,83.20
2023-02-03T02:53:57.341Z,83.20
2023-02-03T02:56:27.264Z,83.40
2023-02-03T02:58:57.166Z,83.30
2023-02-03T03:01:24.621Z,83.30
2023-02-03T03:03:52.835Z,83.40
2023-02-03T03:06:29.356Z,83.50
2023-02-03T03:09:03.259Z,83.50
2023-02-03T03:11:37.383Z,83.40
2023-02-03T03:14:06.740Z,83.40
2023-02-03T03:16:38.648Z,83.30
2023-02-03T03:19:11.356Z,83.20
2023-02-03T03:21:47.599Z,83.30
2023-02-03T03:24:21.128Z,83.30
2023-02-03T03:26:57.421Z,83.30
2023-02-03T03:29:35.293Z,83.30
2023-02-03T03:32:03.562Z,83.40
2023-02-03T03:34:32.340Z,83.20
2023-02-03T03:37:38.562Z,83.20
2023-02-03T03:40:23.800Z,83.50
2023-02-03T03:42:57.153Z,83.50
2023-02-03T03:45:33.091Z,83.50
2023-02-03T03:48:10.746Z,83.70
2023-02-03T03:50:43.457Z,83.70
2023-02-03T03:53:13.203Z,83.70
2023-02-03T03:55:43.175Z,83.70
2023-02-03T03:58:14.559Z,83.70
2023-02-03T04:00:42.873Z,83.60
2023-02-03T04:03:20.701Z,83.50
2023-02-03T04:05:48.339Z,83.70
2023-02-03T04:08:16.951Z,83.80
2023-02-03T04:10:44.912Z,83.90
2023-02-03T04:13:13.049Z,83.90
2023-02-03T04:15:40.446Z,83.90
2023-02-03T04:18:07.901Z,83.90
2023-02-03T04:20:35.305Z,83.90
2023-02-03T04:23:02.758Z,83.70
2023-02-03T04:25:30.240Z,83.70
2023-02-03T04:27:57.687Z,83.70
2023-02-03T04:30:25.297Z,83.50
2023-02-03T04:32:52.973Z,83.60
2023-02-03T04:35:20.688Z,83.40
2023-02-03T04:37:48.054Z,83.60
2023-02-03T04:40:15.458Z,83.60
2023-02-03T04:42:42.999Z,84.40
2023-02-03T04:45:12.247Z,83.50
2023-02-03T04:47:40.098Z,83.50
2023-02-03T04:50:07.980Z,83.40
2023-02-03T04:52:35.406Z,83.40
2023-02-03T04:55:03.964Z,83.40
2023-02-03T04:57:31.687Z,83.30
2023-02-03T04:59:59.016Z,83.40
2023-02-03T05:02:26.437Z,83.40
2023-02-03T05:04:54.368Z,83.50
2023-02-03T05:07:21.704Z,83.50
2023-02-03T05:09:49.060Z,83.40
2023-02-03T05:12:16.683Z,83.40
2023-02-03T05:14:44.004Z,83.50
2023-02-03T05:17:11.304Z,83.70
2023-02-03T05:19:38.636Z,83.60
2023-02-03T05:22:06.047Z,83.70
2023-02-03T05:24:33.392Z,83.70
2023-02-03T05:27:00.761Z,83.60
2023-02-03T05:29:28.251Z,83.60
2023-02-03T05:31:55.750Z,83.50
2023-02-03T05:34:23.177Z,83.40
2023-02-03T05:36:50.767Z,83.40
2023-02-03T05:39:18.237Z,83.60
2023-02-03T05:41:57.185Z,83.50
2023-02-03T05:44:27.380Z,83.50
2023-02-03T05:46:57.075Z,83.40
2023-02-03T05:49:25.157Z,83.40
2023-02-03T05:51:53.834Z,83.40
2023-02-03T05:54:21.732Z,83.50
2023-02-03T05:56:49.333Z,83.50
2023-02-03T05:59:16.885Z,83.40
2023-02-03T06:01:44.278Z,83.50
2023-02-03T06:04:11.964Z,83.40
2023-02-03T06:06:39.384Z,83.20
2023-02-03T06:09:08.402Z,83.30
2023-02-03T06:11:36.594Z,83.20
2023-02-03T06:14:04.539Z,83.20
2023-02-03T06:16:32.352Z,83.20
2023-02-03T06:19:00.943Z,83.10
2023-02-03T06:21:29.209Z,83.00
2023-02-03T06:23:56.752Z,82.90
2023-02-03T06:26:25.341Z,82.80
2023-02-03T06:28:52.759Z,82.70
2023-02-03T06:31:20.505Z,82.70
2023-02-03T06:33:47.899Z,82.60
2023-02-03T06:36:15.352Z,82.40
2023-02-03T06:38:42.808Z,82.40
2023-02-03T06:41:10.007Z,82.40
2023-02-03T06:43:37.400Z,82.40
2023-02-03T06:46:04.946Z,82.40
2023-02-03T06:48:32.529Z,82.40
2023-02-03T06:51:00.133Z,82.50
2023-02-03T06:53:27.626Z,82.60
2023-02-03T06:55:55.408Z,82.50
2023-02-03T06:58:22.862Z,82.40
2023-02-03T07:00:51.534Z,82.50
2023-02-03T07:03:19.050Z,82.50
2023-02-03T07:05:46.481Z,82.40
2023-02-03T07:08:13.915Z,82.40
2023-02-03T07:10:41.836Z,82.50
2023-02-03T07:13:09.530Z,82.40
2023-02-03T07:15:37.348Z,82.40
2023-02-03T07:18:06.100Z,82.40
2023-02-03T07:20:33.531Z,82.50
2023-02-03T07:23:01.107Z,82.50
2023-02-03T07:25:28.858Z,82.50
2023-02-03T07:27:56.418Z,82.50
2023-02-03T07:30:23.995Z,82.50
2023-02-03T07:32:52.727Z,82.50
2023-02-03T07:35:20.827Z,82.40
2023-02-03T07:37:48.372Z,82.40
2023-02-03T07:40:16.243Z,82.30
2023-02-03T07:42:45.090Z,82.20
2023-02-03T07:45:14.125Z,82.20
2023-02-03T07:47:42.873Z,82.30
2023-02-03T07:50:11.992Z,82.40
2023-02-03T07:52:39.900Z,82.30
2023-02-03T07:55:08.104Z,82.30
2023-02-03T07:57:37.251Z,82.30
2023-02-03T08:00:05.664Z,82.30
2023-02-03T08:02:40.215Z,82.50
2023-02-03T08:05:08.445Z,82.60
2023-02-03T08:07:37.261Z,82.60
2023-02-03T08:10:07.182Z,82.60
2023-02-03T08:12:34.791Z,82.50
2023-02-03T08:15:02.360Z,82.50
2023-02-03T08:17:29.951Z,82.60
2023-02-03T08:19:57.449Z,82.60
2023-02-03T08:22:25.067Z,82.60
2023-02-03T08:24:52.455Z,82.50
2023-02-03T08:27:22.146Z,82.60
2023-02-03T08:29:49.808Z,82.70
2023-02-03T08:32:20.192Z,82.60
2023-02-03T08:34:49.432Z,82.70
2023-02-03T08:37:19.502Z,82.70
2023-02-03T08:39:47.925Z,82.60
2023-02-03T08:42:15.470Z,82.60
2023-02-03T08:44:44.260Z,82.60
2023-02-03T08:47:12.024Z,82.60
2023-02-03T08:49:39.745Z,82.60
2023-02-03T08:52:09.113Z,82.60
2023-02-03T08:54:37.530Z,82.50
2023-02-03T08:57:06.037Z,82.50
2023-02-03T08:59:36.123Z,82.50
2023-02-03T09:02:05.121Z,82.60
2023-02-03T09:04:33.693Z,82.60
2023-02-03T09:07:03.379Z,82.50
2023-02-03T09:09:31.970Z,82.60
2023-02-03T09:12:02.549Z,82.50
2023-02-03T09:14:31.475Z,82.50
2023-02-03T09:17:00.332Z,82.50
2023-02-03T09:19:27.969Z,82.50
2023-02-03T09:21:57.153Z,82.40
2023-02-03T09:24:25.079Z,82.50
2023-02-03T09:26:53.266Z,82.50
2023-02-03T09:29:20.521Z,82.60
2023-02-03T09:31:52.604Z,82.60
2023-02-03T09:34:21.212Z,82.50
2023-02-03T09:36:48.853Z,82.50
2023-02-03T09:39:16.125Z,82.60
2023-02-03T09:41:44.178Z,82.50
2023-02-03T09:44:22.533Z,82.40
2023-02-03T09:46:59.017Z,82.40
2023-02-03T09:49:37.519Z,82.40
2023-02-03T09:52:29.252Z,82.40
2023-02-03T09:55:04.122Z,82.40
2023-02-03T09:57:36.491Z,82.40
2023-02-03T10:00:16.810Z,82.40
2023-02-03T10:02:55.989Z,82.40
2023-02-03T10:05:42.189Z,82.40
2023-02-03T10:08:29.703Z,82.40
2023-02-03T10:11:29.844Z,82.30
2023-02-03T10:14:18.335Z,82.30
2023-02-03T10:17:01.107Z,82.20
2023-02-03T10:19:56.803Z,82.10
2023-02-03T10:22:30.777Z,82.10
2023-02-03T10:25:03.454Z,82.10
2023-02-03T10:27:33.256Z,82.20
2023-02-03T10:30:24.168Z,82.20
2023-02-03T10:32:57.420Z,82.30
2023-02-03T10:35:36.345Z,82.40
2023-02-03T10:38:06.091Z,82.30
2023-02-03T10:40:33.522Z,82.30
2023-02-03T10:43:19.853Z,82.30
2023-02-03T10:45:47.391Z,82.30
2023-02-03T10:48:18.155Z,82.20
2023-02-03T10:50:48.961Z,82.20
2023-02-03T10:53:26.028Z,82.30
2023-02-03T10:56:09.324Z,82.30
2023-02-03T10:58:39.048Z,82.10
2023-02-03T11:01:19.095Z,82.00
2023-02-03T11:04:04.586Z,82.00
2023-02-03T11:06:33.873Z,81.90
2023-02-03T11:09:01.666Z,81.90
2023-02-03T11:11:33.778Z,82.00
2023-02-03T11:14:04.524Z,81.90
2023-02-03T11:16:34.301Z,82.00
2023-02-03T11:19:06.253Z,81.90
2023-02-03T11:21:39.748Z,82.00
2023-02-03T11:24:22.879Z,81.90
2023-02-03T11:27:04.588Z,82.00
2023-02-03T11:29:35.266Z,81.90
2023-02-03T11:32:22.274Z,81.80
2023-02-03T11:35:04.257Z,81.60
2023-02-03T11:37:34.702Z,81.60
2023-02-03T11:40:08.292Z,81.70
2023-02-03T11:42:38.219Z,81.70
2023-02-03T11:45:18.761Z,81.70
2023-02-03T11:48:00.619Z,81.60
2023-02-03T11:50:38.413Z,81.70
2023-02-03T11:53:25.752Z,81.90
2023-02-03T11:56:18.978Z,82.00
2023-02-03T11:59:24.373Z,82.10
2023-02-03T12:02:13.357Z,82.20
2023-02-03T12:05:08.937Z,82.30
2023-02-03T12:08:00.689Z,82.50
2023-02-03T12:10:46.900Z,82.80
2023-02-03T12:13:26.160Z,82.80
2023-02-03T12:16:01.289Z,82.90
2023-02-03T12:18:48.882Z,82.90
2023-02-03T12:21:35.575Z,82.90
2023-02-03T12:24:25.435Z,83.00
2023-02-03T12:27:01.244Z,83.10
2023-02-03T12:29:42.354Z,83.10
2023-02-03T12:32:34.511Z,83.10
2023-02-03T12:35:20.686Z,83.10
2023-02-03T12:38:10.837Z,83.10
2023-02-03T12:40:50.715Z,83.00
2023-02-03T12:43:37.533Z,83.00
2023-02-03T12:46:11.202Z,83.90
2023-02-03T12:48:44.962Z,83.30
2023-02-03T12:51:17.874Z,83.50
2023-02-03T12:53:51.804Z,83.60
2023-02-03T12:56:27.049Z,83.50
2023-02-03T12:59:05.117Z,83.30
2023-02-03T13:01:40.369Z,83.40
2023-02-03T13:04:41.239Z,83.40
2023-02-03T13:07:21.143Z,83.30
2023-02-03T13:10:13.574Z,83.50
2023-02-03T13:12:49.851Z,83.70
2023-02-03T13:15:26.134Z,83.50
2023-02-03T13:17:59.560Z,83.60
2023-02-03T13:20:31.456Z,83.30
2023-02-03T13:22:59.017Z,83.20
2023-02-03T13:25:51.363Z,82.90
2023-02-03T13:28:43.299Z,82.70
2023-02-03T13:31:37.095Z,82.50
2023-02-03T13:34:27.816Z,82.30
2023-02-03T13:37:23.860Z,82.10
2023-02-03T13:40:16.297Z,82.00
2023-02-03T13:42:53.916Z,81.80
2023-02-03T13:45:43.394Z,81.80
2023-02-03T13:48:16.502Z,82.00
2023-02-03T13:50:46.616Z,81.80
2023-02-03T13:53:23.196Z,82.00
2023-02-03T13:56:02.427Z,81.90
2023-02-03T13:58:35.909Z,82.30
2023-02-03T14:01:23.910Z,82.30
2023-02-03T14:03:51.453Z,82.40
2023-02-03T14:06:37.878Z,82.30
2023-02-03T14:09:30.081Z,82.20
2023-02-03T14:12:16.185Z,82.20
2023-02-03T14:14:52.142Z,82.30
2023-02-03T14:17:34.296Z,82.30
2023-02-03T14:20:27.603Z,82.30
2023-02-03T14:22:58.118Z,82.40
2023-02-03T14:25:27.908Z,82.40
2023-02-03T14:28:18.521Z,82.30
2023-02-03T14:31:07.819Z,82.40
2023-02-03T14:33:57.407Z,82.40
2023-02-03T14:36:41.293Z,82.40
2023-02-03T14:39:19.981Z,82.30
2023-02-03T14:42:10.100Z,82.40
2023-02-03T14:45:05.690Z,82.50
2023-02-03T14:47:47.796Z,82.40
2023-02-03T14:50:20.856Z,82.40
2023-02-03T14:52:57.468Z,82.40
2023-02-03T14:55:42.537Z,82.50
2023-02-03T14:58:44.372Z,82.60
2023-02-03T15:01:37.392Z,82.70
2023-02-03T15:04:13.731Z,82.70
2023-02-03T15:06:46.831Z,82.80
2023-02-03T15:09:39.295Z,82.90
2023-02-03T15:12:22.525Z,83.00
2023-02-03T15:14:50.056Z,83.00
2023-02-03T15:17:26.541Z,82.90
2023-02-03T15:19:54.159Z,83.10
2023-02-03T15:22:23.129Z,83.20
2023-02-03T15:24:53.847Z,83.20
2023-02-03T15:27:32.444Z,83.20
2023-02-03T15:30:17.991Z,83.30
2023-02-03T15:33:04.689Z,83.30
2023-02-03T15:35:34.029Z,83.40
2023-02-03T15:38:14.070Z,83.40
2023-02-03T15:40:49.037Z,83.40
2023-02-03T15:43:24.445Z,83.40
2023-02-03T15:46:31.610Z,83.30
2023-02-03T15:49:20.558Z,83.20
2023-02-03T15:51:56.816Z,83.30
2023-02-03T15:54:40.696Z,83.20
2023-02-03T15:57:29.785Z,83.30
2023-02-03T16:00:00.471Z,83.30
2023-02-03T16:02:31.391Z,83.30
2023-02-03T16:05:03.154Z,83.40
2023-02-03T16:07:30.991Z,83.50
2023-02-03T16:09:59.973Z,83.50
2023-02-03T16:12:32.321Z,83.50
2023-02-03T16:15:01.850Z,83.50
2023-02-03T16:17:39.274Z,84.40
2023-02-03T16:20:10.827Z,83.60
2023-02-03T16:22:38.348Z,83.60
2023-02-03T16:25:15.134Z,83.50
2023-02-03T16:27:45.412Z,83.60
2023-02-03T16:30:32.545Z,83.60
2023-02-03T16:33:27.796Z,83.60
2023-02-03T16:36:15.305Z,83.60
2023-02-03T16:39:05.289Z,83.60
2023-02-03T16:41:52.040Z,83.50
2023-02-03T16:44:38.642Z,83.60
2023-02-03T16:47:42.382Z,83.60
2023-02-03T16:50:41.324Z,83.60
2023-02-03T16:53:14.960Z,83.60
2023-02-03T16:55:43.729Z,83.50
2023-02-03T16:58:12.463Z,83.50
2023-02-03T17:00:42.005Z,84.30
2023-02-03T17:03:13.258Z,83.70
2023-02-03T17:05:42.708Z,83.70
2023-02-03T17:08:10.573Z,83.60
2023-02-03T17:10:39.613Z,83.60
2023-02-03T17:13:07.932Z,83.50
2023-02-03T17:15:40.021Z,83.50
2023-02-03T17:18:07.907Z,83.40
2023-02-03T17:20:37.481Z,83.40
2023-02-03T17:23:04.975Z,83.30
2023-02-03T17:25:37.132Z,83.30
2023-02-03T17:28:06.188Z,83.30
2023-02-03T17:30:35.092Z,83.20
2023-02-03T17:33:11.926Z,83.10
2023-02-03T17:35:43.998Z,83.00
2023-02-03T17:38:13.431Z,83.10
2023-02-03T17:54:40.820Z,82.40
2023-02-03T17:57:08.183Z,82.30
2023-02-03T17:59:37.661Z,82.20
2023-02-03T18:02:05.261Z,82.90
2023-02-03T18:04:32.746Z,82.10
2023-02-03T18:07:00.112Z,82.60
2023-02-03T18:09:27.500Z,81.50
2023-02-03T18:11:54.877Z,81.10
2023-02-03T18:14:22.180Z,80.80
2023-02-03T18:16:49.497Z,80.40
2023-02-03T18:19:17.201Z,80.00
2023-02-03T18:21:45.188Z,79.50
2023-02-03T18:24:14.151Z,79.40
2023-02-03T18:26:50.829Z,79.00
2023-02-03T18:29:19.066Z,78.70
2023-02-03T18:31:47.291Z,78.50
2023-02-03T18:34:16.813Z,77.80
2023-02-03T18:36:44.880Z,78.00
2023-02-03T18:39:14.462Z,77.80
2023-02-03T18:41:42.025Z,77.50
2023-02-03T18:44:09.945Z,77.40
2023-02-03T18:46:37.557Z,77.10
2023-02-03T18:49:09.445Z,76.90
2023-02-03T18:51:37.063Z,76.50
2023-02-03T18:54:04.864Z,76.60
2023-02-03T18:56:35.490Z,76.70
2023-02-03T18:59:11.161Z,76.60
2023-02-03T19:01:39.163Z,76.10
2023-02-03T19:04:06.956Z,76.00
2023-02-03T19:06:35.714Z,75.30
2023-02-03T19:09:03.836Z,75.60
2023-02-03T19:11:31.234Z,75.40
2023-02-03T19:13:58.586Z,75.20
2023-02-03T19:16:25.912Z,75.10
2023-02-03T19:18:53.562Z,75.30
2023-02-03T19:21:21.232Z,75.10
2023-02-03T19:23:48.800Z,75.20
2023-02-03T19:26:16.411Z,75.40
2023-02-03T19:28:43.653Z,75.60
2023-02-03T19:31:15.094Z,75.70
2023-02-03T19:33:43.103Z,76.00
2023-02-03T19:36:11.546Z,76.00
2023-02-03T19:38:39.032Z,76.10
2023-02-03T19:41:07.598Z,76.00
2023-02-03T19:43:35.197Z,75.80
2023-02-03T19:46:02.690Z,76.00
2023-02-03T19:48:30.202Z,75.60
2023-02-03T19:50:57.557Z,75.50
2023-02-03T19:53:24.913Z,75.70
2023-02-03T19:55:52.729Z,75.50
2023-02-03T19:58:20.242Z,75.10
2023-02-03T20:00:47.584Z,75.20
2023-02-03T20:03:17.172Z,75.20
2023-02-03T20:05:44.551Z,75.40
2023-02-03T20:08:14.359Z,75.40
2023-02-03T20:10:44.508Z,75.40
2023-02-03T20:13:13.155Z,75.30
2023-02-03T20:15:40.988Z,74.90
2023-02-03T20:18:08.806Z,74.90
2023-02-03T20:20:36.453Z,74.80
2023-02-03T20:23:04.003Z,75.70
2023-02-03T20:25:31.569Z,74.90
2023-02-03T20:28:02.323Z,75.00
2023-02-03T20:30:30.672Z,75.00
2023-02-03T20:32:58.638Z,74.90
2023-02-03T20:35:26.821Z,74.60
2023-02-03T20:37:54.497Z,74.70
2023-02-03T20:40:23.908Z,74.50
2023-02-03T20:42:53.016Z,74.40
2023-02-03T20:45:23.319Z,74.40
2023-02-03T20:47:51.275Z,74.30
2023-02-03T20:50:37.369Z,74.10
2023-02-03T20:53:14.937Z,73.60
2023-02-03T20:55:42.867Z,73.70
2023-02-03T20:58:24.143Z,73.60
2023-02-03T21:00:52.286Z,73.50
2023-02-03T21:03:39.269Z,73.60
2023-02-03T21:06:18.815Z,74.10
2023-02-03T21:08:47.922Z,73.00
2023-02-03T21:11:17.830Z,72.90
2023-02-03T21:13:46.380Z,72.60
2023-02-03T21:16:29.711Z,72.50
2023-02-03T21:19:02.680Z,72.20
2023-02-03T21:21:39.497Z,72.20
2023-02-03T21:24:27.003Z,71.90
2023-02-03T21:26:54.916Z,71.80
2023-02-03T21:29:31.900Z,72.50
2023-02-03T21:31:59.669Z,72.30
2023-02-03T21:34:31.680Z,72.30
2023-02-03T21:37:07.009Z,72.40
2023-02-03T21:39:35.105Z,72.00
2023-02-03T21:42:16.911Z,71.60
2023-02-03T21:44:44.425Z,72.00
2023-02-03T21:47:18.220Z,72.50
2023-02-03T21:49:46.311Z,72.30
2023-02-03T21:52:14.202Z,71.80
2023-02-03T21:54:44.199Z,72.20
2023-02-03T21:57:14.670Z,72.40
2023-02-03T21:59:46.476Z,72.30
2023-02-03T22:02:49.177Z,72.30
2023-02-03T22:05:16.794Z,72.40
2023-02-03T22:07:44.286Z,72.40
2023-02-03T22:10:11.817Z,72.20
2023-02-03T22:12:39.196Z,72.00
2023-02-03T22:15:07.345Z,72.00
2023-02-03T22:17:34.636Z,72.10
2023-02-03T22:20:01.894Z,71.70
2023-02-03T22:22:30.904Z,71.90
2023-02-03T22:24:58.559Z,71.60
2023-02-03T22:27:26.057Z,71.40
2023-02-03T22:29:56.258Z,71.20
2023-02-03T22:32:23.593Z,71.60
2023-02-03T22:34:50.866Z,71.10
2023-02-03T22:37:18.244Z,71.00
2023-02-03T22:39:45.577Z,71.10
2023-02-03T22:42:14.254Z,71.00
2023-02-03T22:44:42.002Z,71.10
2023-02-03T22:47:09.342Z,70.70
2023-02-03T22:49:36.836Z,70.80
2023-02-03T22:52:04.472Z,71.00
2023-02-03T22:54:31.915Z,71.00
2023-02-03T22:56:59.369Z,70.80
2023-02-03T22:59:26.792Z,70.00
2023-02-03T23:01:54.350Z,70.20
2023-02-03T23:04:22.925Z,70.60
2023-02-03T23:06:50.604Z,70.20
2023-02-03T23:09:18.238Z,70.20
2023-02-03T23:11:45.565Z,70.20
2023-02-03T23:14:13.728Z,70.10
2023-02-03T23:16:41.128Z,70.30
2023-02-03T23:19:08.623Z,70.00
2023-02-03T23:21:35.914Z,69.50
2023-02-03T23:24:03.499Z,69.30
2023-02-03T23:26:30.689Z,69.20
2023-02-03T23:28:58.011Z,69.20
2023-02-03T23:31:25.646Z,68.80
2023-02-03T23:34:11.708Z,68.90
2023-02-03T23:36:39.199Z,68.80
2023-02-03T23:39:06.860Z,68.90
2023-02-03T23:41:34.170Z,68.80
2023-02-03T23:44:01.458Z,68.30
2023-02-03T23:46:28.902Z,68.50
2023-02-03T23:48:56.162Z,68.80
2023-02-03T23:51:23.340Z,68.50
2023-02-03T23:53:50.522Z,68.40
2023-02-03T23:56:17.924Z,68.70
2023-02-03T23:58:45.153Z,68.60
